sensor_id;sensor_type;location;lat;lon;timestamp;P1;durP1;ratioP1;P2;durP2;ratioP2
71091;SDS011;58751;50.708;7.134;2023-04-15T00:01:11;4.30;;;3.13;;
71091;SDS011;58751;50.708;7.134;2023-04-15T00:03:37;8.60;;;3.10;;
71091;SDS011;58751;50.708;7.134;2023-04-15T00:06:02;3.07;;;2.77;;
71091;SDS011;58751;50.708;7.134;2023-04-15T00:08:27;9.50;;;2.97;;
71091;SDS011;58751;50.708;7.134;2023-04-15T00:10:52;4.40;;;2.70;;
71091;SDS011;58751;50.708;7.134;2023-04-15T00:13:19;2.90;;;2.53;;
71091;SDS011;58751;50.708;7.134;2023-04-15T00:15:44;2.97;;;2.60;;
71091;SDS011;58751;50.708;7.134;2023-04-15T00:18:09;3.60;;;2.70;;
71091;SDS011;58751;50.708;7.134;2023-04-15T00:20:34;4.17;;;2.60;;
71091;SDS011;58751;50.708;7.134;2023-04-15T00:23:00;2.80;;;2.40;;
71091;SDS011;58751;50.708;7.134;2023-04-15T00:25:26;4.50;;;3.23;;
71091;SDS011;58751;50.708;7.134;2023-04-15T00:27:51;4.17;;;3.07;;
71091;SDS011;58751;50.708;7.134;2023-04-15T00:30:17;3.60;;;3.30;;
71091;SDS011;58751;50.708;7.134;2023-04-15T00:32:43;6.93;;;3.33;;
71091;SDS011;58751;50.708;7.134;2023-04-15T00:35:08;3.17;;;2.93;;
71091;SDS011;58751;50.708;7.134;2023-04-15T00:37:33;5.03;;;3.30;;
71091;SDS011;58751;50.708;7.134;2023-04-15T00:39:58;9.57;;;3.50;;
71091;SDS011;58751;50.708;7.134;2023-04-15T00:42:23;4.63;;;3.40;;
71091;SDS011;58751;50.708;7.134;2023-04-15T00:44:49;4.30;;;3.90;;
71091;SDS011;58751;50.708;7.134;2023-04-15T00:47:16;4.70;;;3.60;;
71091;SDS011;58751;50.708;7.134;2023-04-15T00:49:41;3.58;;;2.75;;
71091;SDS011;58751;50.708;7.134;2023-04-15T00:52:06;5.03;;;3.60;;
71091;SDS011;58751;50.708;7.134;2023-04-15T00:54:31;3.50;;;3.20;;
71091;SDS011;58751;50.708;7.134;2023-04-15T00:56:57;3.53;;;2.43;;
71091;SDS011;58751;50.708;7.134;2023-04-15T00:59:22;5.10;;;2.87;;
71091;SDS011;58751;50.708;7.134;2023-04-15T01:01:47;3.20;;;2.60;;
71091;SDS011;58751;50.708;7.134;2023-04-15T01:04:14;4.00;;;2.90;;
71091;SDS011;58751;50.708;7.134;2023-04-15T01:06:39;5.03;;;2.55;;
71091;SDS011;58751;50.708;7.134;2023-04-15T01:09:05;3.13;;;2.63;;
71091;SDS011;58751;50.708;7.134;2023-04-15T01:11:30;3.40;;;3.20;;
71091;SDS011;58751;50.708;7.134;2023-04-15T01:13:57;2.80;;;2.23;;
71091;SDS011;58751;50.708;7.134;2023-04-15T01:16:22;4.53;;;2.30;;
71091;SDS011;58751;50.708;7.134;2023-04-15T01:18:48;5.50;;;2.93;;
71091;SDS011;58751;50.708;7.134;2023-04-15T01:21:14;2.43;;;2.23;;
71091;SDS011;58751;50.708;7.134;2023-04-15T01:23:39;4.10;;;2.70;;
71091;SDS011;58751;50.708;7.134;2023-04-15T01:26:06;6.87;;;2.93;;
71091;SDS011;58751;50.708;7.134;2023-04-15T01:28:31;4.05;;;2.92;;
71091;SDS011;58751;50.708;7.134;2023-04-15T01:31:07;3.80;;;3.33;;
71091;SDS011;58751;50.708;7.134;2023-04-15T01:33:32;3.15;;;2.70;;
71091;SDS011;58751;50.708;7.134;2023-04-15T01:35:57;4.70;;;3.60;;
71091;SDS011;58751;50.708;7.134;2023-04-15T01:38:22;4.43;;;2.77;;
71091;SDS011;58751;50.708;7.134;2023-04-15T01:40:48;4.00;;;2.90;;
71091;SDS011;58751;50.708;7.134;2023-04-15T01:43:14;3.17;;;2.40;;
71091;SDS011;58751;50.708;7.134;2023-04-15T01:45:39;4.28;;;2.88;;
71091;SDS011;58751;50.708;7.134;2023-04-15T01:48:05;2.90;;;2.60;;
71091;SDS011;58751;50.708;7.134;2023-04-15T01:50:30;5.23;;;3.70;;
71091;SDS011;58751;50.708;7.134;2023-04-15T01:52:55;5.27;;;2.93;;
71091;SDS011;58751;50.708;7.134;2023-04-15T01:55:20;4.00;;;3.00;;
71091;SDS011;58751;50.708;7.134;2023-04-15T01:57:46;3.40;;;2.40;;
71091;SDS011;58751;50.708;7.134;2023-04-15T02:00:12;4.70;;;2.90;;
71091;SDS011;58751;50.708;7.134;2023-04-15T02:02:38;4.93;;;3.72;;
71091;SDS011;58751;50.708;7.134;2023-04-15T02:05:03;3.00;;;2.27;;
71091;SDS011;58751;50.708;7.134;2023-04-15T02:07:28;5.13;;;2.77;;
71091;SDS011;58751;50.708;7.134;2023-04-15T02:09:54;4.33;;;3.93;;
71091;SDS011;58751;50.708;7.134;2023-04-15T02:12:19;8.33;;;3.03;;
71091;SDS011;58751;50.708;7.134;2023-04-15T02:14:44;4.00;;;3.20;;
71091;SDS011;58751;50.708;7.134;2023-04-15T02:17:10;4.13;;;2.73;;
71091;SDS011;58751;50.708;7.134;2023-04-15T02:19:36;6.97;;;2.90;;
71091;SDS011;58751;50.708;7.134;2023-04-15T02:22:01;7.83;;;3.83;;
71091;SDS011;58751;50.708;7.134;2023-04-15T02:24:26;4.80;;;3.13;;
71091;SDS011;58751;50.708;7.134;2023-04-15T02:26:52;4.60;;;2.50;;
71091;SDS011;58751;50.708;7.134;2023-04-15T02:29:17;4.40;;;3.00;;
71091;SDS011;58751;50.708;7.134;2023-04-15T02:31:42;8.50;;;3.10;;
71091;SDS011;58751;50.708;7.134;2023-04-15T02:34:09;5.60;;;3.03;;
71091;SDS011;58751;50.708;7.134;2023-04-15T02:36:34;4.32;;;3.10;;
71091;SDS011;58751;50.708;7.134;2023-04-15T02:38:59;3.33;;;2.80;;
71091;SDS011;58751;50.708;7.134;2023-04-15T02:41:24;3.17;;;2.30;;
71091;SDS011;58751;50.708;7.134;2023-04-15T02:43:49;3.70;;;2.43;;
71091;SDS011;58751;50.708;7.134;2023-04-15T02:46:14;4.80;;;3.57;;
71091;SDS011;58751;50.708;7.134;2023-04-15T02:48:40;2.43;;;2.23;;
71091;SDS011;58751;50.708;7.134;2023-04-15T02:51:13;6.17;;;3.40;;
71091;SDS011;58751;50.708;7.134;2023-04-15T02:53:39;3.83;;;3.30;;
71091;SDS011;58751;50.708;7.134;2023-04-15T02:56:04;4.17;;;3.30;;
71091;SDS011;58751;50.708;7.134;2023-04-15T02:58:29;4.63;;;3.13;;
71091;SDS011;58751;50.708;7.134;2023-04-15T03:00:54;5.17;;;4.03;;
71091;SDS011;58751;50.708;7.134;2023-04-15T03:03:20;4.20;;;2.80;;
71091;SDS011;58751;50.708;7.134;2023-04-15T03:05:45;7.50;;;3.10;;
71091;SDS011;58751;50.708;7.134;2023-04-15T03:08:11;3.57;;;2.97;;
71091;SDS011;58751;50.708;7.134;2023-04-15T03:10:37;3.75;;;2.40;;
71091;SDS011;58751;50.708;7.134;2023-04-15T03:13:02;6.07;;;3.13;;
71091;SDS011;58751;50.708;7.134;2023-04-15T03:15:27;3.93;;;2.83;;
71091;SDS011;58751;50.708;7.134;2023-04-15T03:17:52;4.40;;;2.83;;
71091;SDS011;58751;50.708;7.134;2023-04-15T03:20:17;4.17;;;2.70;;
71091;SDS011;58751;50.708;7.134;2023-04-15T03:22:43;5.40;;;2.60;;
71091;SDS011;58751;50.708;7.134;2023-04-15T03:25:09;5.57;;;2.50;;
71091;SDS011;58751;50.708;7.134;2023-04-15T03:27:35;5.57;;;2.70;;
71091;SDS011;58751;50.708;7.134;2023-04-15T03:30:00;5.20;;;3.17;;
71091;SDS011;58751;50.708;7.134;2023-04-15T03:32:25;3.77;;;2.90;;
71091;SDS011;58751;50.708;7.134;2023-04-15T03:34:50;2.87;;;2.60;;
71091;SDS011;58751;50.708;7.134;2023-04-15T03:37:15;4.53;;;2.97;;
71091;SDS011;58751;50.708;7.134;2023-04-15T03:39:40;3.87;;;3.43;;
71091;SDS011;58751;50.708;7.134;2023-04-15T03:42:07;5.20;;;3.57;;
71091;SDS011;58751;50.708;7.134;2023-04-15T03:44:32;4.97;;;3.30;;
71091;SDS011;58751;50.708;7.134;2023-04-15T03:46:57;4.43;;;3.13;;
71091;SDS011;58751;50.708;7.134;2023-04-15T03:49:23;4.83;;;3.20;;
71091;SDS011;58751;50.708;7.134;2023-04-15T03:51:48;3.63;;;3.30;;
71091;SDS011;58751;50.708;7.134;2023-04-15T03:54:13;3.63;;;3.23;;
71091;SDS011;58751;50.708;7.134;2023-04-15T03:56:38;7.93;;;3.10;;
71091;SDS011;58751;50.708;7.134;2023-04-15T03:59:05;4.40;;;2.80;;
71091;SDS011;58751;50.708;7.134;2023-04-15T04:01:30;7.15;;;3.05;;
71091;SDS011;58751;50.708;7.134;2023-04-15T04:03:55;6.07;;;2.97;;
71091;SDS011;58751;50.708;7.134;2023-04-15T04:06:20;2.93;;;2.73;;
71091;SDS011;58751;50.708;7.134;2023-04-15T04:08:46;4.00;;;2.70;;
71091;SDS011;58751;50.708;7.134;2023-04-15T04:11:11;2.93;;;2.27;;
71091;SDS011;58751;50.708;7.134;2023-04-15T04:13:36;2.47;;;2.20;;
71091;SDS011;58751;50.708;7.134;2023-04-15T04:16:05;4.00;;;2.13;;
71091;SDS011;58751;50.708;7.134;2023-04-15T04:18:30;4.43;;;3.10;;
71091;SDS011;58751;50.708;7.134;2023-04-15T04:20:55;3.40;;;2.40;;
71091;SDS011;58751;50.708;7.134;2023-04-15T04:23:21;3.73;;;2.43;;
71091;SDS011;58751;50.708;7.134;2023-04-15T04:25:46;3.37;;;2.33;;
71091;SDS011;58751;50.708;7.134;2023-04-15T04:28:11;4.37;;;2.30;;
71091;SDS011;58751;50.708;7.134;2023-04-15T04:30:36;3.67;;;2.00;;
71091;SDS011;58751;50.708;7.134;2023-04-15T04:33:03;2.70;;;1.73;;
71091;SDS011;58751;50.708;7.134;2023-04-15T04:35:28;3.67;;;2.50;;
71091;SDS011;58751;50.708;7.134;2023-04-15T04:37:53;2.50;;;2.00;;
71091;SDS011;58751;50.708;7.134;2023-04-15T04:40:19;3.10;;;2.00;;
71091;SDS011;58751;50.708;7.134;2023-04-15T04:42:44;3.97;;;2.90;;
71091;SDS011;58751;50.708;7.134;2023-04-15T04:45:09;5.77;;;2.57;;
71091;SDS011;58751;50.708;7.134;2023-04-15T04:47:34;5.40;;;3.17;;
71091;SDS011;58751;50.708;7.134;2023-04-15T04:50:01;3.83;;;2.77;;
71091;SDS011;58751;50.708;7.134;2023-04-15T04:52:26;3.35;;;2.85;;
71091;SDS011;58751;50.708;7.134;2023-04-15T04:54:51;5.23;;;3.13;;
71091;SDS011;58751;50.708;7.134;2023-04-15T04:57:17;6.50;;;3.37;;
71091;SDS011;58751;50.708;7.134;2023-04-15T04:59:42;5.43;;;4.07;;
71091;SDS011;58751;50.708;7.134;2023-04-15T05:02:07;5.83;;;3.80;;
71091;SDS011;58751;50.708;7.134;2023-04-15T05:04:32;3.37;;;3.07;;
71091;SDS011;58751;50.708;7.134;2023-04-15T05:06:59;4.40;;;2.70;;
71091;SDS011;58751;50.708;7.134;2023-04-15T05:09:24;6.05;;;3.40;;
71091;SDS011;58751;50.708;7.134;2023-04-15T05:11:49;5.40;;;4.00;;
71091;SDS011;58751;50.708;7.134;2023-04-15T05:14:15;5.73;;;3.37;;
71091;SDS011;58751;50.708;7.134;2023-04-15T05:16:40;3.80;;;3.40;;
71091;SDS011;58751;50.708;7.134;2023-04-15T05:19:05;4.27;;;3.87;;
71091;SDS011;58751;50.708;7.134;2023-04-15T05:21:30;5.03;;;4.00;;
71091;SDS011;58751;50.708;7.134;2023-04-15T05:23:59;4.97;;;4.30;;
71091;SDS011;58751;50.708;7.134;2023-04-15T05:26:24;6.03;;;3.78;;
71091;SDS011;58751;50.708;7.134;2023-04-15T05:28:49;3.57;;;3.20;;
71091;SDS011;58751;50.708;7.134;2023-04-15T05:31:16;5.87;;;3.37;;
71091;SDS011;58751;50.708;7.134;2023-04-15T05:33:41;5.57;;;3.38;;
71091;SDS011;58751;50.708;7.134;2023-04-15T05:36:06;3.90;;;3.13;;
71091;SDS011;58751;50.708;7.134;2023-04-15T05:38:32;4.70;;;3.90;;
71091;SDS011;58751;50.708;7.134;2023-04-15T05:40:58;6.27;;;3.70;;
71091;SDS011;58751;50.708;7.134;2023-04-15T05:43:23;4.40;;;2.90;;
71091;SDS011;58751;50.708;7.134;2023-04-15T05:45:49;7.40;;;2.80;;
71091;SDS011;58751;50.708;7.134;2023-04-15T05:48:14;3.67;;;2.83;;
71091;SDS011;58751;50.708;7.134;2023-04-15T05:50:39;2.67;;;2.37;;
71091;SDS011;58751;50.708;7.134;2023-04-15T05:53:05;4.50;;;3.00;;
71091;SDS011;58751;50.708;7.134;2023-04-15T05:55:30;2.27;;;2.07;;
71091;SDS011;58751;50.708;7.134;2023-04-15T05:57:56;2.70;;;2.40;;
71091;SDS011;58751;50.708;7.134;2023-04-15T06:00:22;4.18;;;3.67;;
71091;SDS011;58751;50.708;7.134;2023-04-15T06:02:47;4.97;;;3.07;;
71091;SDS011;58751;50.708;7.134;2023-04-15T06:05:12;5.20;;;2.97;;
71091;SDS011;58751;50.708;7.134;2023-04-15T06:07:37;5.97;;;2.83;;
71091;SDS011;58751;50.708;7.134;2023-04-15T06:10:03;5.20;;;3.07;;
71091;SDS011;58751;50.708;7.134;2023-04-15T06:12:28;5.60;;;2.90;;
71091;SDS011;58751;50.708;7.134;2023-04-15T06:14:55;2.63;;;2.43;;
71091;SDS011;58751;50.708;7.134;2023-04-15T06:17:20;3.70;;;2.50;;
71091;SDS011;58751;50.708;7.134;2023-04-15T06:19:45;4.13;;;2.63;;
71091;SDS011;58751;50.708;7.134;2023-04-15T06:22:11;2.77;;;2.50;;
71091;SDS011;58751;50.708;7.134;2023-04-15T06:24:36;4.27;;;3.27;;
71091;SDS011;58751;50.708;7.134;2023-04-15T06:27:01;3.93;;;3.50;;
71091;SDS011;58751;50.708;7.134;2023-04-15T06:29:26;4.37;;;3.10;;
71091;SDS011;58751;50.708;7.134;2023-04-15T06:31:53;5.93;;;3.60;;
71091;SDS011;58751;50.708;7.134;2023-04-15T06:34:20;6.13;;;4.18;;
71091;SDS011;58751;50.708;7.134;2023-04-15T06:36:45;4.75;;;3.35;;
71091;SDS011;58751;50.708;7.134;2023-04-15T06:39:10;8.10;;;3.20;;
71091;SDS011;58751;50.708;7.134;2023-04-15T06:41:36;4.80;;;3.70;;
71091;SDS011;58751;50.708;7.134;2023-04-15T06:44:01;3.93;;;3.17;;
71091;SDS011;58751;50.708;7.134;2023-04-15T06:46:26;4.50;;;2.70;;
71091;SDS011;58751;50.708;7.134;2023-04-15T06:48:53;5.00;;;3.60;;
71091;SDS011;58751;50.708;7.134;2023-04-15T06:51:18;3.45;;;2.97;;
71091;SDS011;58751;50.708;7.134;2023-04-15T06:53:43;5.73;;;3.20;;
71091;SDS011;58751;50.708;7.134;2023-04-15T06:56:08;4.27;;;3.17;;
71091;SDS011;58751;50.708;7.134;2023-04-15T06:58:34;6.07;;;3.40;;
71091;SDS011;58751;50.708;7.134;2023-04-15T07:00:59;5.33;;;3.20;;
71091;SDS011;58751;50.708;7.134;2023-04-15T07:03:24;3.90;;;3.60;;
71091;SDS011;58751;50.708;7.134;2023-04-15T07:05:51;4.70;;;3.60;;
71091;SDS011;58751;50.708;7.134;2023-04-15T07:08:16;6.70;;;4.33;;
71091;SDS011;58751;50.708;7.134;2023-04-15T07:10:41;4.20;;;3.73;;
71091;SDS011;58751;50.708;7.134;2023-04-15T07:13:07;4.00;;;3.60;;
71091;SDS011;58751;50.708;7.134;2023-04-15T07:15:32;6.37;;;3.93;;
71091;SDS011;58751;50.708;7.134;2023-04-15T07:17:58;4.43;;;4.00;;
71091;SDS011;58751;50.708;7.134;2023-04-15T07:20:23;5.93;;;3.70;;
71091;SDS011;58751;50.708;7.134;2023-04-15T07:22:49;4.90;;;3.90;;
71091;SDS011;58751;50.708;7.134;2023-04-15T07:25:15;4.73;;;4.33;;
71091;SDS011;58751;50.708;7.134;2023-04-15T07:27:40;5.00;;;4.30;;
71091;SDS011;58751;50.708;7.134;2023-04-15T07:30:05;6.07;;;4.37;;
71091;SDS011;58751;50.708;7.134;2023-04-15T07:32:31;7.60;;;4.73;;
71091;SDS011;58751;50.708;7.134;2023-04-15T07:34:56;5.63;;;5.13;;
71091;SDS011;58751;50.708;7.134;2023-04-15T07:37:21;5.30;;;4.90;;
71091;SDS011;58751;50.708;7.134;2023-04-15T07:39:48;6.03;;;5.07;;
71091;SDS011;58751;50.708;7.134;2023-04-15T07:42:13;5.57;;;5.07;;
71091;SDS011;58751;50.708;7.134;2023-04-15T07:44:38;5.83;;;5.20;;
71091;SDS011;58751;50.708;7.134;2023-04-15T07:47:03;6.00;;;5.40;;
71091;SDS011;58751;50.708;7.134;2023-04-15T07:49:29;7.83;;;5.47;;
71091;SDS011;58751;50.708;7.134;2023-04-15T07:51:54;10.93;;;5.90;;
71091;SDS011;58751;50.708;7.134;2023-04-15T07:54:19;5.80;;;5.20;;
71091;SDS011;58751;50.708;7.134;2023-04-15T07:56:46;6.87;;;5.80;;
71091;SDS011;58751;50.708;7.134;2023-04-15T07:59:11;6.13;;;5.00;;
71091;SDS011;58751;50.708;7.134;2023-04-15T08:01:36;5.90;;;5.30;;
71091;SDS011;58751;50.708;7.134;2023-04-15T08:04:01;4.93;;;4.53;;
71091;SDS011;58751;50.708;7.134;2023-04-15T08:06:27;6.27;;;5.63;;
71091;SDS011;58751;50.708;7.134;2023-04-15T08:08:52;7.77;;;5.40;;
71091;SDS011;58751;50.708;7.134;2023-04-15T08:11:17;6.20;;;5.57;;
71091;SDS011;58751;50.708;7.134;2023-04-15T08:13:44;5.47;;;4.97;;
71091;SDS011;58751;50.708;7.134;2023-04-15T08:16:14;6.00;;;5.47;;
71091;SDS011;58751;50.708;7.134;2023-04-15T08:18:39;6.80;;;5.33;;
71091;SDS011;58751;50.708;7.134;2023-04-15T08:21:04;5.57;;;5.03;;
71091;SDS011;58751;50.708;7.134;2023-04-15T08:23:30;9.23;;;5.17;;
71091;SDS011;58751;50.708;7.134;2023-04-15T08:25:55;5.13;;;4.63;;
71091;SDS011;58751;50.708;7.134;2023-04-15T08:28:20;5.40;;;4.97;;
71091;SDS011;58751;50.708;7.134;2023-04-15T08:30:47;5.30;;;4.87;;
71091;SDS011;58751;50.708;7.134;2023-04-15T08:33:12;5.90;;;5.30;;
71091;SDS011;58751;50.708;7.134;2023-04-15T08:35:37;5.17;;;4.70;;
71091;SDS011;58751;50.708;7.134;2023-04-15T08:38:02;10.37;;;4.97;;
71091;SDS011;58751;50.708;7.134;2023-04-15T08:40:29;5.77;;;5.17;;
71091;SDS011;58751;50.708;7.134;2023-04-15T08:42:59;5.67;;;5.17;;
71091;SDS011;58751;50.708;7.134;2023-04-15T08:45:26;5.63;;;4.60;;
71091;SDS011;58751;50.708;7.134;2023-04-15T08:47:53;8.67;;;5.80;;
71091;SDS011;58751;50.708;7.134;2023-04-15T08:50:19;6.30;;;5.80;;
71091;SDS011;58751;50.708;7.134;2023-04-15T08:52:45;7.40;;;5.27;;
71091;SDS011;58751;50.708;7.134;2023-04-15T08:55:10;6.93;;;6.23;;
71091;SDS011;58751;50.708;7.134;2023-04-15T08:57:36;7.50;;;5.60;;
71091;SDS011;58751;50.708;7.134;2023-04-15T09:00:02;5.00;;;4.60;;
71091;SDS011;58751;50.708;7.134;2023-04-15T09:02:27;5.30;;;4.80;;
71091;SDS011;58751;50.708;7.134;2023-04-15T09:04:54;5.40;;;4.60;;
71091;SDS011;58751;50.708;7.134;2023-04-15T09:07:19;6.27;;;5.70;;
71091;SDS011;58751;50.708;7.134;2023-04-15T09:09:44;5.73;;;4.97;;
71091;SDS011;58751;50.708;7.134;2023-04-15T09:12:10;4.93;;;4.00;;
71091;SDS011;58751;50.708;7.134;2023-04-15T09:14:35;5.93;;;5.10;;
71091;SDS011;58751;50.708;7.134;2023-04-15T09:17:01;6.33;;;3.97;;
71091;SDS011;58751;50.708;7.134;2023-04-15T09:19:26;2.97;;;2.50;;
71091;SDS011;58751;50.708;7.134;2023-04-15T09:21:53;2.33;;;1.77;;
71091;SDS011;58751;50.708;7.134;2023-04-15T09:24:19;2.63;;;2.07;;
71091;SDS011;58751;50.708;7.134;2023-04-15T09:26:44;2.10;;;1.90;;
71091;SDS011;58751;50.708;7.134;2023-04-15T09:29:10;2.20;;;1.67;;
71091;SDS011;58751;50.708;7.134;2023-04-15T09:31:35;1.87;;;1.70;;
71091;SDS011;58751;50.708;7.134;2023-04-15T09:34:00;3.50;;;1.50;;
71091;SDS011;58751;50.708;7.134;2023-04-15T09:36:26;2.53;;;1.40;;
71091;SDS011;58751;50.708;7.134;2023-04-15T09:38:55;1.53;;;1.47;;
71091;SDS011;58751;50.708;7.134;2023-04-15T09:41:21;1.73;;;1.20;;
71091;SDS011;58751;50.708;7.134;2023-04-15T09:43:46;1.37;;;1.27;;
71091;SDS011;58751;50.708;7.134;2023-04-15T09:46:11;1.37;;;0.90;;
71091;SDS011;58751;50.708;7.134;2023-04-15T09:48:36;1.77;;;1.40;;
71091;SDS011;58751;50.708;7.134;2023-04-15T09:51:02;1.33;;;1.23;;
71091;SDS011;58751;50.708;7.134;2023-04-15T09:53:27;1.73;;;1.00;;
71091;SDS011;58751;50.708;7.134;2023-04-15T09:55:55;1.93;;;1.83;;
71091;SDS011;58751;50.708;7.134;2023-04-15T09:58:22;1.83;;;1.40;;
71091;SDS011;58751;50.708;7.134;2023-04-15T10:00:47;1.43;;;1.30;;
71091;SDS011;58751;50.708;7.134;2023-04-15T10:03:13;1.30;;;1.20;;
71091;SDS011;58751;50.708;7.134;2023-04-15T10:05:39;2.87;;;1.60;;
71091;SDS011;58751;50.708;7.134;2023-04-15T10:08:04;1.50;;;1.40;;
71091;SDS011;58751;50.708;7.134;2023-04-15T10:10:30;2.90;;;2.00;;
71091;SDS011;58751;50.708;7.134;2023-04-15T10:12:56;1.60;;;1.20;;
71091;SDS011;58751;50.708;7.134;2023-04-15T10:15:22;1.87;;;1.77;;
71091;SDS011;58751;50.708;7.134;2023-04-15T10:17:47;1.70;;;1.60;;
71091;SDS011;58751;50.708;7.134;2023-04-15T10:20:14;2.10;;;1.60;;
71091;SDS011;58751;50.708;7.134;2023-04-15T10:22:41;2.47;;;2.17;;
71091;SDS011;58751;50.708;7.134;2023-04-15T10:25:08;1.70;;;1.47;;
71091;SDS011;58751;50.708;7.134;2023-04-15T10:27:33;1.60;;;1.50;;
71091;SDS011;58751;50.708;7.134;2023-04-15T10:30:00;1.80;;;1.70;;
71091;SDS011;58751;50.708;7.134;2023-04-15T10:32:25;1.73;;;1.60;;
71091;SDS011;58751;50.708;7.134;2023-04-15T10:34:51;1.43;;;1.33;;
71091;SDS011;58751;50.708;7.134;2023-04-15T10:37:20;3.43;;;1.57;;
71091;SDS011;58751;50.708;7.134;2023-04-15T10:39:45;1.93;;;1.60;;
71091;SDS011;58751;50.708;7.134;2023-04-15T10:42:11;2.40;;;1.47;;
71091;SDS011;58751;50.708;7.134;2023-04-15T10:44:37;1.33;;;1.20;;
71091;SDS011;58751;50.708;7.134;2023-04-15T10:47:05;1.70;;;1.60;;
71091;SDS011;58751;50.708;7.134;2023-04-15T10:49:30;1.70;;;1.33;;
71091;SDS011;58751;50.708;7.134;2023-04-15T10:51:56;1.13;;;1.03;;
71091;SDS011;58751;50.708;7.134;2023-04-15T10:54:29;1.70;;;1.60;;
71091;SDS011;58751;50.708;7.134;2023-04-15T10:57:08;2.30;;;1.70;;
71091;SDS011;58751;50.708;7.134;2023-04-15T10:59:35;2.87;;;1.80;;
71091;SDS011;58751;50.708;7.134;2023-04-15T11:02:00;1.93;;;1.73;;
71091;SDS011;58751;50.708;7.134;2023-04-15T11:07:16;2.13;;;1.80;;
71091;SDS011;58751;50.708;7.134;2023-04-15T11:09:56;1.80;;;1.70;;
71091;SDS011;58751;50.708;7.134;2023-04-15T11:12:22;1.87;;;1.70;;
71091;SDS011;58751;50.708;7.134;2023-04-15T11:14:57;1.77;;;1.67;;
71091;SDS011;58751;50.708;7.134;2023-04-15T11:17:25;2.30;;;2.10;;
71091;SDS011;58751;50.708;7.134;2023-04-15T11:19:51;1.90;;;1.80;;
71091;SDS011;58751;50.708;7.134;2023-04-15T11:22:17;3.43;;;3.17;;
71091;SDS011;58751;50.708;7.134;2023-04-15T11:24:46;3.10;;;2.70;;
71091;SDS011;58751;50.708;7.134;2023-04-15T11:27:18;2.53;;;2.33;;
71091;SDS011;58751;50.708;7.134;2023-04-15T11:29:44;2.43;;;2.23;;
71091;SDS011;58751;50.708;7.134;2023-04-15T11:32:09;2.90;;;2.70;;
71091;SDS011;58751;50.708;7.134;2023-04-15T11:34:34;3.30;;;2.63;;
71091;SDS011;58751;50.708;7.134;2023-04-15T11:36:59;2.97;;;2.77;;
71091;SDS011;58751;50.708;7.134;2023-04-15T11:39:29;2.57;;;2.43;;
71091;SDS011;58751;50.708;7.134;2023-04-15T11:41:54;2.90;;;2.70;;
71091;SDS011;58751;50.708;7.134;2023-04-15T11:44:19;2.80;;;2.60;;
71091;SDS011;58751;50.708;7.134;2023-04-15T11:46:44;3.03;;;2.83;;
71091;SDS011;58751;50.708;7.134;2023-04-15T11:49:10;3.00;;;2.80;;
71091;SDS011;58751;50.708;7.134;2023-04-15T11:51:35;2.97;;;2.70;;
71091;SDS011;58751;50.708;7.134;2023-04-15T11:54:00;2.97;;;2.77;;
71091;SDS011;58751;50.708;7.134;2023-04-15T11:56:27;2.90;;;2.70;;
71091;SDS011;58751;50.708;7.134;2023-04-15T11:58:52;2.90;;;2.70;;
71091;SDS011;58751;50.708;7.134;2023-04-15T12:01:18;2.20;;;2.10;;
71091;SDS011;58751;50.708;7.134;2023-04-15T12:03:43;2.73;;;2.53;;
71091;SDS011;58751;50.708;7.134;2023-04-15T12:06:13;2.33;;;2.10;;
71091;SDS011;58751;50.708;7.134;2023-04-15T12:11:33;1.60;;;1.50;;
71091;SDS011;58751;50.708;7.134;2023-04-15T12:14:01;1.63;;;1.53;;
71091;SDS011;58751;50.708;7.134;2023-04-15T12:16:26;1.73;;;1.63;;
71091;SDS011;58751;50.708;7.134;2023-04-15T12:18:52;1.83;;;1.60;;
71091;SDS011;58751;50.708;7.134;2023-04-15T12:21:18;1.43;;;1.33;;
71091;SDS011;58751;50.708;7.134;2023-04-15T12:23:46;1.30;;;1.20;;
71091;SDS011;58751;50.708;7.134;2023-04-15T12:26:12;1.20;;;1.20;;
71091;SDS011;58751;50.708;7.134;2023-04-15T12:28:40;2.00;;;1.90;;
71091;SDS011;58751;50.708;7.134;2023-04-15T12:31:06;2.00;;;1.90;;
71091;SDS011;58751;50.708;7.134;2023-04-15T12:33:31;2.30;;;2.20;;
71091;SDS011;58751;50.708;7.134;2023-04-15T12:35:56;1.87;;;1.77;;
71091;SDS011;58751;50.708;7.134;2023-04-15T12:38:22;3.50;;;1.90;;
71091;SDS011;58751;50.708;7.134;2023-04-15T12:40:47;2.10;;;2.00;;
71091;SDS011;58751;50.708;7.134;2023-04-15T12:43:12;2.00;;;1.90;;
71091;SDS011;58751;50.708;7.134;2023-04-15T12:45:39;2.50;;;2.30;;
71091;SDS011;58751;50.708;7.134;2023-04-15T12:48:05;1.90;;;1.80;;
71091;SDS011;58751;50.708;7.134;2023-04-15T12:50:30;2.27;;;2.07;;
71091;SDS011;58751;50.708;7.134;2023-04-15T12:52:55;1.80;;;1.70;;
71091;SDS011;58751;50.708;7.134;2023-04-15T12:55:21;4.23;;;3.87;;
71091;SDS011;58751;50.708;7.134;2023-04-15T12:57:46;1.87;;;1.77;;
71091;SDS011;58751;50.708;7.134;2023-04-15T13:00:11;2.57;;;2.40;;
71091;SDS011;58751;50.708;7.134;2023-04-15T13:02:38;1.93;;;1.83;;
71091;SDS011;58751;50.708;7.134;2023-04-15T13:05:03;2.00;;;1.90;;
71091;SDS011;58751;50.708;7.134;2023-04-15T13:07:29;2.47;;;2.30;;
71091;SDS011;58751;50.708;7.134;2023-04-15T13:09:54;1.80;;;1.70;;
71091;SDS011;58751;50.708;7.134;2023-04-15T13:12:19;2.27;;;2.07;;
71091;SDS011;58751;50.708;7.134;2023-04-15T13:14:44;2.30;;;2.13;;
71091;SDS011;58751;50.708;7.134;2023-04-15T13:17:10;2.67;;;2.47;;
71091;SDS011;58751;50.708;7.134;2023-04-15T13:19:37;3.90;;;2.60;;
71091;SDS011;58751;50.708;7.134;2023-04-15T13:22:02;2.50;;;2.30;;
71091;SDS011;58751;50.708;7.134;2023-04-15T13:24:27;3.13;;;2.93;;
71091;SDS011;58751;50.708;7.134;2023-04-15T13:26:53;3.00;;;2.80;;
71091;SDS011;58751;50.708;7.134;2023-04-15T13:29:18;3.77;;;3.37;;
71091;SDS011;58751;50.708;7.134;2023-04-15T13:31:43;3.03;;;2.80;;
71091;SDS011;58751;50.708;7.134;2023-04-15T13:34:09;4.00;;;3.20;;
71091;SDS011;58751;50.708;7.134;2023-04-15T13:36:35;2.90;;;2.70;;
71091;SDS011;58751;50.708;7.134;2023-04-15T13:39:00;3.30;;;3.00;;
71091;SDS011;58751;50.708;7.134;2023-04-15T13:41:26;2.90;;;2.80;;
71091;SDS011;58751;50.708;7.134;2023-04-15T13:43:51;2.93;;;2.73;;
71091;SDS011;58751;50.708;7.134;2023-04-15T13:46:16;3.23;;;3.03;;
71091;SDS011;58751;50.708;7.134;2023-04-15T13:48:41;3.60;;;3.30;;
71091;SDS011;58751;50.708;7.134;2023-04-15T13:51:07;2.80;;;2.60;;
71091;SDS011;58751;50.708;7.134;2023-04-15T13:53:33;3.13;;;2.93;;
71091;SDS011;58751;50.708;7.134;2023-04-15T13:55:58;3.47;;;3.17;;
71091;SDS011;58751;50.708;7.134;2023-04-15T13:58:24;4.17;;;3.80;;
71091;SDS011;58751;50.708;7.134;2023-04-15T14:00:51;3.43;;;3.17;;
71091;SDS011;58751;50.708;7.134;2023-04-15T14:03:16;3.80;;;3.43;;
71091;SDS011;58751;50.708;7.134;2023-04-15T14:05:41;4.60;;;4.30;;
71091;SDS011;58751;50.708;7.134;2023-04-15T14:08:06;5.20;;;4.80;;
71091;SDS011;58751;50.708;7.134;2023-04-15T14:10:33;4.03;;;3.73;;
71091;SDS011;58751;50.708;7.134;2023-04-15T14:12:59;4.80;;;4.50;;
71091;SDS011;58751;50.708;7.134;2023-04-15T14:15:24;5.17;;;4.83;;
71091;SDS011;58751;50.708;7.134;2023-04-15T14:17:49;5.93;;;5.43;;
71091;SDS011;58751;50.708;7.134;2023-04-15T14:20:14;6.57;;;6.07;;
71091;SDS011;58751;50.708;7.134;2023-04-15T14:22:39;6.77;;;6.23;;
71091;SDS011;58751;50.708;7.134;2023-04-15T14:25:05;7.03;;;6.50;;
71091;SDS011;58751;50.708;7.134;2023-04-15T14:27:32;9.43;;;6.50;;
71091;SDS011;58751;50.708;7.134;2023-04-15T14:29:57;7.30;;;6.70;;
71091;SDS011;58751;50.708;7.134;2023-04-15T14:32:23;8.67;;;8.00;;
71091;SDS011;58751;50.708;7.134;2023-04-15T14:34:48;7.50;;;6.90;;
71091;SDS011;58751;50.708;7.134;2023-04-15T14:37:14;7.50;;;6.83;;
71091;SDS011;58751;50.708;7.134;2023-04-15T14:39:39;7.63;;;6.97;;
71091;SDS011;58751;50.708;7.134;2023-04-15T14:42:04;7.57;;;6.87;;
71091;SDS011;58751;50.708;7.134;2023-04-15T14:44:31;7.40;;;6.77;;